createdAt,value
2018-11-11T00:01:56.742Z,79.67
2018-11-11T00:04:26.433Z,79.76
2018-11-11T00:06:55.459Z,79.63
2018-11-11T00:09:24.580Z,79.61
2018-11-11T00:11:53.905Z,79.61
2018-11-11T00:14:22.901Z,79.55
2018-11-11T00:16:51.881Z,79.46
2018-11-11T00:19:21.069Z,79.59
2018-11-11T00:21:50.098Z,79.67
2018-11-11T00:24:19.066Z,79.48
2018-11-11T00:26:48.130Z,79.68
2018-11-11T00:29:17.179Z,80.19
2018-11-11T00:31:46.123Z,79.86
2018-11-11T00:34:15.545Z,79.82
2018-11-11T00:36:44.457Z,79.92
2018-11-11T00:39:13.417Z,79.88
2018-11-11T00:41:42.575Z,79.77
2018-11-11T00:44:11.619Z,79.84
2018-11-11T00:46:40.597Z,79.77
2018-11-11T00:49:09.893Z,79.76
2018-11-11T00:51:38.869Z,79.95
2018-11-11T00:54:07.840Z,79.80
2018-11-11T00:56:36.811Z,80.01
2018-11-11T00:59:06.325Z,80.09
2018-11-11T01:01:35.288Z,80.12
2018-11-11T01:04:04.309Z,80.22
2018-11-11T01:06:33.253Z,80.24
2018-11-11T01:09:02.391Z,80.20
2018-11-11T01:11:31.384Z,80.41
2018-11-11T01:14:00.604Z,80.39
2018-11-11T01:16:29.589Z,80.25
2018-11-11T01:18:58.606Z,80.25
2018-11-11T01:21:27.584Z,80.19
2018-11-11T01:23:56.536Z,80.31
2018-11-11T01:26:25.588Z,80.06
2018-11-11T01:28:54.571Z,79.85
2018-11-11T01:31:23.621Z,79.97
2018-11-11T01:33:52.583Z,80.15
2018-11-11T01:36:21.557Z,80.17
2018-11-11T01:38:50.520Z,80.37
2018-11-11T01:41:19.510Z,80.20
2018-11-11T01:43:48.508Z,80.05
2018-11-11T01:46:17.494Z,80.20
2018-11-11T01:48:46.509Z,80.04
2018-11-11T01:51:15.794Z,80.05
2018-11-11T01:53:44.755Z,80.04
2018-11-11T01:56:13.745Z,80.04
2018-11-11T01:58:42.750Z,80.21
2018-11-11T02:01:11.903Z,80.27
2018-11-11T02:03:41.019Z,80.25
2018-11-11T02:06:09.947Z,80.35
2018-11-11T02:08:38.912Z,80.04
2018-11-11T02:11:07.943Z,80.17
2018-11-11T02:13:36.922Z,80.06
2018-11-11T02:16:06.706Z,80.06
2018-11-11T02:18:35.736Z,79.90
2018-11-11T02:21:04.745Z,80.10
2018-11-11T02:23:33.744Z,80.29
2018-11-11T02:26:02.677Z,80.07
2018-11-11T02:28:31.742Z,80.07
2018-11-11T02:31:01.054Z,80.15
2018-11-11T02:33:29.999Z,80.14
2018-11-11T02:35:58.921Z,80.02
2018-11-11T02:38:28.090Z,80.18
2018-11-11T02:40:57.137Z,79.98
2018-11-11T02:43:26.131Z,80.05
2018-11-11T02:45:55.263Z,80.35
2018-11-11T02:48:24.318Z,80.26
2018-11-11T02:50:53.422Z,80.16
2018-11-11T02:53:22.393Z,80.34
2018-11-11T02:55:51.638Z,80.43
2018-11-11T02:58:20.633Z,80.39
2018-11-11T03:00:49.695Z,80.61
2018-11-11T03:03:19.028Z,80.57
2018-11-11T03:05:48.117Z,80.53
2018-11-11T03:08:17.131Z,80.38
2018-11-11T03:10:46.164Z,80.68
2018-11-11T03:13:15.115Z,80.60
2018-11-11T03:15:44.108Z,80.60
2018-11-11T03:18:13.192Z,80.65
2018-11-11T03:20:42.392Z,80.69
2018-11-11T03:23:11.462Z,80.72
2018-11-11T03:25:40.635Z,80.69
2018-11-11T03:28:09.756Z,80.74
2018-11-11T03:30:38.990Z,80.80
2018-11-11T03:33:08.064Z,80.76
2018-11-11T03:35:37.074Z,80.95
2018-11-11T03:38:06.416Z,80.95
2018-11-11T03:40:35.539Z,80.85
2018-11-11T03:43:04.621Z,81.01
2018-11-11T03:45:33.810Z,80.87
2018-11-11T03:48:03.026Z,80.90
2018-11-11T03:50:32.049Z,80.91
2018-11-11T03:53:01.136Z,81.23
2018-11-11T03:55:30.494Z,81.36
2018-11-11T03:57:59.561Z,81.36
2018-11-11T04:00:28.782Z,81.37
2018-11-11T04:02:58.039Z,81.51
2018-11-11T04:05:27.183Z,81.48
2018-11-11T04:07:56.192Z,81.43
2018-11-11T04:10:25.227Z,81.72
2018-11-11T04:12:54.416Z,81.54
2018-11-11T04:15:23.495Z,81.43
2018-11-11T04:17:52.562Z,81.41
2018-11-11T04:20:21.957Z,81.69
2018-11-11T04:22:51.120Z,81.98
2018-11-11T04:25:20.473Z,81.94
2018-11-11T04:27:49.546Z,81.95
2018-11-11T04:30:19.042Z,81.92
2018-11-11T04:32:48.041Z,81.57
2018-11-11T04:35:17.069Z,81.82
2018-11-11T04:37:46.247Z,81.25
2018-11-11T04:40:15.470Z,81.14
2018-11-11T04:42:44.453Z,80.77
2018-11-11T04:45:15.075Z,80.69
2018-11-11T04:47:45.185Z,81.04
2018-11-11T04:50:15.523Z,80.60
2018-11-11T04:52:45.208Z,80.48
2018-11-11T04:55:14.320Z,80.39
2018-11-11T04:57:43.892Z,80.12
2018-11-11T05:00:14.139Z,80.34
2018-11-11T05:02:43.459Z,80.49
2018-11-11T05:05:13.405Z,80.09
2018-11-11T05:07:42.789Z,80.30
2018-11-11T05:10:12.248Z,80.18
2018-11-11T05:12:41.330Z,80.35
2018-11-11T05:15:11.962Z,80.22
2018-11-11T05:17:44.904Z,80.47
2018-11-11T05:20:14.561Z,80.48
2018-11-11T05:22:44.070Z,80.44
2018-11-11T05:25:14.483Z,80.27
2018-11-11T05:27:43.985Z,80.30
2018-11-11T05:30:14.689Z,80.43
2018-11-11T05:32:43.645Z,80.03
2018-11-11T05:35:13.333Z,80.07
2018-11-11T05:37:42.817Z,80.02
2018-11-11T05:40:12.904Z,79.94
2018-11-11T05:42:42.636Z,79.92
2018-11-11T05:45:12.551Z,79.85
2018-11-11T05:47:41.961Z,79.84
2018-11-11T05:50:13.077Z,80.08
2018-11-11T05:52:42.677Z,80.01
2018-11-11T05:55:11.704Z,79.67
2018-11-11T05:57:40.901Z,79.65
2018-11-11T06:00:12.359Z,79.75
2018-11-11T06:02:41.632Z,79.67
2018-11-11T06:05:12.420Z,79.41
2018-11-11T06:07:41.587Z,79.43
2018-11-11T06:10:12.401Z,79.45
2018-11-11T06:12:41.391Z,79.43
2018-11-11T06:15:11.818Z,79.81
2018-11-11T06:17:40.769Z,79.87
2018-11-11T06:20:12.789Z,79.88
2018-11-11T06:22:41.860Z,79.92
2018-11-11T06:25:11.468Z,79.91
2018-11-11T06:27:40.479Z,80.19
2018-11-11T06:30:10.315Z,79.70
2018-11-11T06:32:39.355Z,79.39
2018-11-11T06:35:08.556Z,79.23
2018-11-11T06:37:37.685Z,79.02
2018-11-11T06:40:08.521Z,78.78
2018-11-11T06:42:38.106Z,78.68
2018-11-11T06:45:08.785Z,78.40
2018-11-11T06:47:37.821Z,78.66
2018-11-11T06:50:08.244Z,78.54
2018-11-11T06:52:37.377Z,78.53
2018-11-11T06:55:06.460Z,78.60
2018-11-11T06:57:35.457Z,78.56
2018-11-11T07:00:04.663Z,78.72
2018-11-11T07:02:35.973Z,78.29
2018-11-11T07:05:05.686Z,78.16
2018-11-11T07:07:34.713Z,78.14
2018-11-11T07:10:03.846Z,77.89
2018-11-11T07:12:32.900Z,77.93
2018-11-11T07:15:01.892Z,77.98
2018-11-11T07:17:30.891Z,78.44
2018-11-11T07:19:59.901Z,78.42
2018-11-11T07:22:28.860Z,78.44
2018-11-11T07:24:57.841Z,78.57
2018-11-11T07:27:26.807Z,78.39
2018-11-11T07:29:55.805Z,78.32
2018-11-11T07:32:24.835Z,78.32
2018-11-11T07:34:53.824Z,78.20
2018-11-11T07:37:22.794Z,77.96
2018-11-11T07:39:51.810Z,77.88
2018-11-11T07:42:20.849Z,77.61
2018-11-11T07:44:50.012Z,77.56
2018-11-11T07:47:19.099Z,77.78
2018-11-11T07:49:48.240Z,77.75
2018-11-11T07:52:17.259Z,77.72
2018-11-11T07:54:46.302Z,77.91
2018-11-11T07:57:15.283Z,77.87
2018-11-11T07:59:44.260Z,77.95
2018-11-11T08:02:13.466Z,77.51
2018-11-11T08:04:42.449Z,77.53
2018-11-11T08:07:11.526Z,77.65
2018-11-11T08:09:40.638Z,77.34
2018-11-11T08:12:09.844Z,77.26
2018-11-11T08:14:39.034Z,77.29
2018-11-11T08:17:08.018Z,77.52
2018-11-11T08:19:37.119Z,76.93
2018-11-11T08:22:06.722Z,76.88
2018-11-11T08:24:35.684Z,76.85
2018-11-11T08:27:04.775Z,76.62
2018-11-11T08:29:33.884Z,76.54
2018-11-11T08:32:02.975Z,76.27
2018-11-11T08:34:32.006Z,76.39
2018-11-11T08:37:01.045Z,76.42
2018-11-11T08:39:30.217Z,76.23
2018-11-11T08:42:01.138Z,76.32
2018-11-11T08:44:30.180Z,76.37
2018-11-11T08:46:59.155Z,76.49
2018-11-11T08:49:28.229Z,76.25
2018-11-11T08:51:57.245Z,76.50
2018-11-11T08:54:26.251Z,76.60
2018-11-11T08:56:55.265Z,76.65
2018-11-11T08:59:24.311Z,77.12
2018-11-11T09:01:53.346Z,77.39
2018-11-11T09:04:22.351Z,77.56
2018-11-11T09:06:51.457Z,77.95
2018-11-11T09:09:20.525Z,77.90
2018-11-11T09:11:49.524Z,78.00
2018-11-11T09:14:18.922Z,77.95
2018-11-11T09:16:48.009Z,78.29
2018-11-11T09:19:17.212Z,78.16
2018-11-11T09:21:46.285Z,78.11
2018-11-11T09:24:15.655Z,78.22
2018-11-11T09:26:44.702Z,78.10
2018-11-11T09:29:13.886Z,77.97
2018-11-11T09:31:42.925Z,77.81
2018-11-11T09:34:12.010Z,77.66
2018-11-11T09:36:41.129Z,77.97
2018-11-11T09:39:11.701Z,78.16
2018-11-11T09:41:41.793Z,78.19
2018-11-11T09:44:10.864Z,78.19
2018-11-11T09:46:39.956Z,78.27
2018-11-11T09:49:08.970Z,78.24
2018-11-11T09:51:38.051Z,78.08
2018-11-11T09:54:07.692Z,78.27
2018-11-11T09:56:37.067Z,78.09
2018-11-11T09:59:06.924Z,78.14
2018-11-11T10:01:37.150Z,78.47
2018-11-11T10:04:13.307Z,78.19
2018-11-11T10:06:47.770Z,78.36
2018-11-11T10:09:54.317Z,78.63
2018-11-11T10:12:35.178Z,78.57
2018-11-11T10:15:18.229Z,78.61
2018-11-11T10:17:52.336Z,78.60
2018-11-11T10:21:30.032Z,78.41
2018-11-11T10:24:04.343Z,78.20
2018-11-11T10:26:38.276Z,78.15
2018-11-11T10:29:12.639Z,78.08
2018-11-11T10:31:51.468Z,77.93
2018-11-11T10:34:27.629Z,77.77
2018-11-11T10:37:02.735Z,77.62
2018-11-11T10:39:41.448Z,77.45
2018-11-11T10:42:15.673Z,77.35
2018-11-11T10:44:56.194Z,77.44
2018-11-11T10:47:43.175Z,77.46
2018-11-11T10:50:17.253Z,77.48
2018-11-11T10:52:47.255Z,77.31
2018-11-11T10:55:16.302Z,76.83
2018-11-11T10:57:45.344Z,76.63
2018-11-11T11:00:19.551Z,76.24
2018-11-11T11:02:55.334Z,76.22
2018-11-11T11:05:24.447Z,76.19
2018-11-11T11:07:53.913Z,76.15
2018-11-11T11:10:23.170Z,75.84
2018-11-11T11:12:52.289Z,75.88
2018-11-11T11:15:21.648Z,75.88
2018-11-11T11:17:50.851Z,76.19
2018-11-11T11:20:19.996Z,76.19
2018-11-11T11:22:49.066Z,75.96
2018-11-11T11:25:18.156Z,75.88
2018-11-11T11:27:47.251Z,75.70
2018-11-11T11:30:18.668Z,75.40
2018-11-11T11:32:51.637Z,75.45
2018-11-11T11:35:23.685Z,75.25
2018-11-11T11:37:57.277Z,75.07
2018-11-11T11:40:29.177Z,75.28
2018-11-11T11:43:01.245Z,75.02
2018-11-11T11:45:33.893Z,75.27
2018-11-11T11:48:06.817Z,75.44
2018-11-11T11:50:40.569Z,75.47
2018-11-11T11:53:12.543Z,75.10
2018-11-11T11:55:44.176Z,74.88
2018-11-11T11:58:25.757Z,74.75
2018-11-11T12:00:57.790Z,74.59
2018-11-11T12:03:26.928Z,74.61
2018-11-11T12:05:56.056Z,74.25
2018-11-11T12:08:25.259Z,74.18
2018-11-11T12:10:54.510Z,74.03
2018-11-11T12:13:23.752Z,73.87
2018-11-11T12:15:53.321Z,73.79
2018-11-11T12:18:22.455Z,73.61
2018-11-11T12:20:51.596Z,74.06
2018-11-11T12:23:20.716Z,73.89
2018-11-11T12:25:49.696Z,74.15
2018-11-11T12:28:18.940Z,74.05
2018-11-11T12:30:48.084Z,73.88
2018-11-11T12:33:17.207Z,73.77
2018-11-11T12:35:46.217Z,74.04
2018-11-11T12:38:15.290Z,73.86
2018-11-11T12:40:44.440Z,73.99
2018-11-11T12:43:13.570Z,73.95
2018-11-11T12:45:43.309Z,74.01
2018-11-11T12:48:12.398Z,74.18
2018-11-11T12:50:42.279Z,73.96
2018-11-11T12:53:11.347Z,74.01
2018-11-11T12:55:41.301Z,74.07
2018-11-11T12:58:10.367Z,73.64
2018-11-11T13:00:39.558Z,73.53
2018-11-11T13:03:09.594Z,73.37
2018-11-11T13:05:38.718Z,72.85
2018-11-11T13:08:07.987Z,72.69
2018-11-11T13:10:36.884Z,72.61
2018-11-11T13:13:06.798Z,73.02
2018-11-11T13:15:35.768Z,72.41
2018-11-11T13:18:04.963Z,72.49
2018-11-11T13:20:34.004Z,72.15
2018-11-11T13:23:03.147Z,72.02
2018-11-11T13:25:32.265Z,71.98
2018-11-11T13:28:02.590Z,72.12
2018-11-11T13:30:31.601Z,72.09
2018-11-11T13:33:00.692Z,72.02
2018-11-11T13:35:30.089Z,72.22
2018-11-11T13:37:59.323Z,72.07
2018-11-11T13:40:28.309Z,72.12
2018-11-11T13:42:57.554Z,72.17
2018-11-11T13:45:26.692Z,71.81
2018-11-11T13:47:55.832Z,71.84
2018-11-11T13:50:25.986Z,71.79
2018-11-11T13:52:55.131Z,71.81
2018-11-11T13:55:24.788Z,71.87
2018-11-11T13:57:53.832Z,71.66
2018-11-11T14:00:27.950Z,71.76
2018-11-11T14:02:57.299Z,71.71
2018-11-11T14:05:26.345Z,71.63
2018-11-11T14:07:55.532Z,71.22
2018-11-11T14:10:24.593Z,71.12
2018-11-11T14:12:53.647Z,71.07
2018-11-11T14:15:24.158Z,71.14
2018-11-11T14:17:54.067Z,70.99
2018-11-11T14:20:24.046Z,70.94
2018-11-11T14:22:54.354Z,71.16
2018-11-11T14:25:26.694Z,70.50
2018-11-11T14:27:55.694Z,70.49
2018-11-11T14:30:25.912Z,70.15
2018-11-11T14:32:55.917Z,70.27
2018-11-11T14:35:25.864Z,70.16
2018-11-11T14:37:54.963Z,70.11
2018-11-11T14:40:26.192Z,69.95
2018-11-11T14:42:55.210Z,69.81
2018-11-11T14:45:24.620Z,69.76
2018-11-11T14:47:54.659Z,69.89
2018-11-11T14:50:24.566Z,69.89
2018-11-11T14:52:53.790Z,69.75
2018-11-11T14:55:24.205Z,69.90
2018-11-11T14:57:53.323Z,69.83
2018-11-11T15:00:23.993Z,69.80
2018-11-11T15:03:01.557Z,69.83
2018-11-11T15:05:30.854Z,69.63
2018-11-11T15:08:00.131Z,69.83
2018-11-11T15:10:29.798Z,70.08
2018-11-11T15:12:59.110Z,69.95
2018-11-11T15:15:28.126Z,70.10
2018-11-11T15:17:58.218Z,69.74
2018-11-11T15:20:27.411Z,69.95
2018-11-11T15:22:56.388Z,70.15
2018-11-11T15:25:26.853Z,70.18
2018-11-11T15:27:56.013Z,70.27
2018-11-11T15:30:30.177Z,70.41
2018-11-11T15:32:59.832Z,70.48
2018-11-11T15:35:28.837Z,70.41
2018-11-11T15:37:57.986Z,70.67
2018-11-11T15:40:28.278Z,70.51
2018-11-11T15:42:57.417Z,70.69
2018-11-11T15:45:27.881Z,70.76
2018-11-11T15:47:56.922Z,71.06
2018-11-11T15:50:27.246Z,70.90
2018-11-11T15:53:01.608Z,71.16
2018-11-11T15:55:32.131Z,70.98
2018-11-11T15:58:01.205Z,71.03
2018-11-11T16:00:32.467Z,70.85
2018-11-11T16:03:05.997Z,71.00
2018-11-11T16:05:35.141Z,71.17
2018-11-11T16:08:04.500Z,70.90
2018-11-11T16:10:34.256Z,71.03
2018-11-11T16:13:03.291Z,70.97
2018-11-11T16:15:33.985Z,70.83
2018-11-11T16:18:05.077Z,70.94
2018-11-11T16:20:34.177Z,70.93
2018-11-11T16:23:05.042Z,71.17
2018-11-11T16:25:34.179Z,71.44
2018-11-11T16:28:03.252Z,71.35
2018-11-11T16:30:33.702Z,71.22
2018-11-11T16:33:03.178Z,71.53
2018-11-11T16:35:33.380Z,71.51
2018-11-11T16:38:02.912Z,71.44
2018-11-11T16:40:33.619Z,71.47
2018-11-11T16:43:02.879Z,71.63
2018-11-11T16:45:32.938Z,71.72
2018-11-11T16:48:02.090Z,71.68
2018-11-11T16:50:32.452Z,71.86
2018-11-11T16:53:05.045Z,71.77
2018-11-11T16:55:34.901Z,72.05
2018-11-11T16:58:03.952Z,72.22
2018-11-11T17:00:34.377Z,72.17
2018-11-11T17:03:04.293Z,72.20
2018-11-11T17:05:34.597Z,72.21
2018-11-11T17:08:03.658Z,72.36
2018-11-11T17:10:34.018Z,72.38
2018-11-11T17:13:04.977Z,72.56
2018-11-11T17:15:34.598Z,72.54
2018-11-11T17:18:03.579Z,72.58
2018-11-11T17:20:32.747Z,72.70
2018-11-11T17:23:03.525Z,72.75
2018-11-11T17:25:32.544Z,72.96
2018-11-11T17:28:01.685Z,72.91
2018-11-11T17:30:31.886Z,72.96
2018-11-11T17:33:01.676Z,73.17
2018-11-11T17:35:30.704Z,73.07
2018-11-11T17:37:59.716Z,73.14
2018-11-11T17:40:30.020Z,73.43
2018-11-11T17:42:59.666Z,73.31
2018-11-11T17:45:28.749Z,73.66
2018-11-11T17:47:58.150Z,73.36
2018-11-11T17:50:28.690Z,73.59
2018-11-11T17:52:58.231Z,73.56
2018-11-11T17:55:27.998Z,73.92
2018-11-11T17:57:57.005Z,73.89
2018-11-11T18:00:27.280Z,74.04
2018-11-11T18:02:57.026Z,74.12
2018-11-11T18:05:27.216Z,73.91
2018-11-11T18:07:56.195Z,74.11
2018-11-11T18:10:25.840Z,74.26
2018-11-11T18:12:54.894Z,74.44
2018-11-11T18:15:31.316Z,74.62
2018-11-11T18:18:00.467Z,74.64
2018-11-11T18:20:30.877Z,74.59
2018-11-11T18:23:00.814Z,74.61
2018-11-11T18:25:29.816Z,74.72
2018-11-11T18:27:59.078Z,74.94
2018-11-11T18:30:30.913Z,74.81
2018-11-11T18:33:00.049Z,74.89
2018-11-11T18:35:29.087Z,74.90
2018-11-11T18:37:58.078Z,75.01
2018-11-11T18:40:28.272Z,75.04
2018-11-11T18:42:57.332Z,74.97
2018-11-11T18:45:27.774Z,75.14
2018-11-11T18:47:56.912Z,75.25
2018-11-11T18:50:33.560Z,75.09
2018-11-11T18:53:03.247Z,75.30
2018-11-11T18:55:32.404Z,75.37
2018-11-11T18:58:01.794Z,75.49
2018-11-11T19:00:32.065Z,75.21
2018-11-11T19:03:01.170Z,75.42
2018-11-11T19:05:30.361Z,75.41
2018-11-11T19:07:59.806Z,75.32
2018-11-11T19:10:32.242Z,75.44
2018-11-11T19:13:02.596Z,75.61
2018-11-11T19:15:31.665Z,75.46
2018-11-11T19:18:00.748Z,75.54
2018-11-11T19:20:29.985Z,75.69
2018-11-11T19:22:59.013Z,75.67
2018-11-11T19:25:29.276Z,75.71
2018-11-11T19:27:59.181Z,75.85
2018-11-11T19:30:29.168Z,75.94
2018-11-11T19:32:58.299Z,75.83
2018-11-11T19:35:27.973Z,76.02
2018-11-11T19:37:57.772Z,76.06
2018-11-11T19:40:28.195Z,76.00
2018-11-11T19:42:58.652Z,76.05
2018-11-11T19:45:28.819Z,76.22
2018-11-11T19:47:58.723Z,76.38
2018-11-11T19:50:29.857Z,76.25
2018-11-11T19:52:59.298Z,76.22
2018-11-11T19:55:28.680Z,76.26
2018-11-11T19:57:58.102Z,76.35
2018-11-11T20:00:28.794Z,76.00
2018-11-11T20:03:02.823Z,76.37
2018-11-11T20:05:33.133Z,76.31
2018-11-11T20:08:02.659Z,76.48
2018-11-11T20:10:32.245Z,76.63
2018-11-11T20:13:01.778Z,76.66
2018-11-11T20:15:32.332Z,76.58
2018-11-11T20:18:01.369Z,76.58
2018-11-11T20:20:33.724Z,76.66
2018-11-11T20:23:03.158Z,76.69
2018-11-11T20:25:32.681Z,77.07
2018-11-11T20:28:01.883Z,76.98
2018-11-11T20:30:32.594Z,77.11
2018-11-11T20:33:02.720Z,76.82
2018-11-11T20:35:32.578Z,77.10
2018-11-11T20:38:01.790Z,76.97
2018-11-11T20:40:30.972Z,77.15
2018-11-11T20:43:00.480Z,77.24
2018-11-11T20:45:31.124Z,77.21
2018-11-11T20:48:00.162Z,77.15
2018-11-11T20:50:30.583Z,77.29
2018-11-11T20:53:02.067Z,77.13
2018-11-11T20:55:31.268Z,77.23
2018-11-11T20:58:00.739Z,77.21
2018-11-11T21:00:32.445Z,77.15
2018-11-11T21:03:02.445Z,77.25
2018-11-11T21:05:31.768Z,77.38
2018-11-11T21:08:01.113Z,77.41
2018-11-11T21:10:30.809Z,77.27
2018-11-11T21:13:00.426Z,77.34
2018-11-11T21:15:30.683Z,77.30
2018-11-11T21:17:59.925Z,77.14
2018-11-11T21:20:34.877Z,77.07
2018-11-11T21:23:04.138Z,77.21
2018-11-11T21:25:33.415Z,77.10
2018-11-11T21:28:02.469Z,77.18
2018-11-11T21:30:32.500Z,77.17
2018-11-11T21:33:01.629Z,77.14
2018-11-11T21:35:31.556Z,77.11
2018-11-11T21:38:00.777Z,77.16
2018-11-11T21:40:29.865Z,77.27
2018-11-11T21:42:59.034Z,77.62
2018-11-11T21:45:29.010Z,77.68
2018-11-11T21:47:58.332Z,77.56
2018-11-11T21:50:28.019Z,77.84
2018-11-11T21:53:06.173Z,77.92
2018-11-11T21:55:35.360Z,77.77
2018-11-11T21:58:04.361Z,78.05
2018-11-11T22:00:33.398Z,77.95
2018-11-11T22:03:02.777Z,78.05
2018-11-11T22:05:31.934Z,78.01
2018-11-11T22:08:00.968Z,78.11
2018-11-11T22:10:29.988Z,78.10
2018-11-11T22:12:58.974Z,78.11
2018-11-11T22:15:28.003Z,78.03
2018-11-11T22:17:57.938Z,78.02
2018-11-11T22:20:27.018Z,78.08
2018-11-11T22:22:56.161Z,78.10
2018-11-11T22:25:25.182Z,78.05
2018-11-11T22:27:54.252Z,78.11
2018-11-11T22:30:23.254Z,78.05
2018-11-11T22:32:52.350Z,78.36
2018-11-11T22:35:21.386Z,78.31
2018-11-11T22:37:50.465Z,78.17
2018-11-11T22:40:19.428Z,78.00
2018-11-11T22:42:48.521Z,78.23
2018-11-11T22:45:17.567Z,78.30
2018-11-11T22:47:46.757Z,78.61
2018-11-11T22:50:17.540Z,78.44
2018-11-11T22:52:46.881Z,78.28
2018-11-11T22:55:16.259Z,78.27
2018-11-11T22:57:45.458Z,78.18
2018-11-11T23:00:21.959Z,78.22
2018-11-11T23:02:51.717Z,78.32
2018-11-11T23:05:21.648Z,78.56
2018-11-11T23:07:50.857Z,78.47
2018-11-11T23:10:19.908Z,78.64
2018-11-11T23:12:48.965Z,78.44
2018-11-11T23:15:20.110Z,78.73
2018-11-11T23:17:49.266Z,78.88
2018-11-11T23:20:37.789Z,78.96
2018-11-11T23:23:25.588Z,79.30
2018-11-11T23:26:12.465Z,78.99
2018-11-11T23:28:55.033Z,78.99
2018-11-11T23:31:42.093Z,78.88
2018-11-11T23:34:29.208Z,78.87
2018-11-11T23:37:15.357Z,78.91
2018-11-11T23:39:45.056Z,78.61
2018-11-11T23:42:31.754Z,78.74
2018-11-11T23:45:19.710Z,78.66
2018-11-11T23:48:07.500Z,78.64
2018-11-11T23:50:58.430Z,78.57
2018-11-11T23:53:45.844Z,78.43
2018-11-11T23:56:33.106Z,78.35
2018-11-11T23:59:20.698Z,78.41
